KSSF - San Antonio/Stinson, TX, US

Issued at 1739 UTC 18 Oct 2019
Updated at 2317 UTC 18 Oct 2019
Potential Impact None Slight Moderate High
Time2253Z 19/00Z 19/01Z 19/02Z 19/03Z 19/04Z 19/05Z 19/06Z 19/07Z 19/08Z 19/09Z 19/10Z 19/11Z 19/12Z>>
Type OBS PRVL PRVL PRVL PRVL PRVL PRVL PRVL PRVL PRVL PRVL PRVL PRVL PRVL
VIS 10 >6 >6 >6 >6 >6 >6 >6 >6 >6 6 6 4 4
CIG -- -- -- -- -- -- -- -- -- -- 15 15 7 7
Cover CLR FEW FEW FEW FEW FEW FEW FEW FEW FEW BKN BKN OVC OVC
FltCat VFR VFR VFR VFR VFR VFR VFR VFR VFR VFR MVFR MVFR IFR IFR
WX -- -- -- -- -- -- -- -- -- -- BR BR BR BR
WDir 160 150 150 150 150 150 150 150 150 150 VRB VRB VRB VRB
WSpd 6 5 5 5 5 5 5 5 5 5 3 3 3 3
WGst -- -- -- -- -- -- -- -- -- -- -- -- -- --
Raw TAF
KSSF 181739Z 1818/1918 15005KT P6SM FEW250
  FM190900 VRB03KT 6SM BR BKN015
  FM191100 VRB03KT 4SM BR OVC007
  FM191500 VRB03KT 6SM BR OVC015
  FM191700 22005KT P6SM SCT150


Raw METAR
KSSF 182253Z 16006KT 10SM CLR 27/13 A2970 RMK AO2 SLP050 T02720133
KSSF 182153Z VRB03KT 10SM CLR 28/13 A2971 RMK AO2 SLP054 T02780133
KSSF 182053Z 20005KT 10SM CLR 28/13 A2972 RMK AO2 SLP057 T02780133 56031

METAR Board
Radar Display
Forecast Discussion
For situational awareness. Not to be used for flight planning purposes.